Time;durP1;ratioP1;P1;durP2;ratioP2;P2;SDS_P1;SDS_P2;PMS_P1;PMS_P2;Temp;Humidity;BMP_temperature;BMP_pressure;BME280_temperature;BME280_humidity;BME280_pressure;Samples;Min_cycle;Max_cycle;Signal;HPM_P1;HPM_P2
2022/10/06 00:02:15;;;;;;;;;;;12.70;99.90;;;;;;5091841;28;19932;-87
2022/10/06 00:04:40;;;;;;;;;;;12.60;99.90;;;;;;5113500;28;19963;-87
2022/10/06 00:07:06;;;;;;;;;;;12.50;99.90;;;;;;5107825;28;19924;-88
2022/10/06 00:09:32;;;;;;;;;;;12.50;99.90;;;;;;5106289;28;20044;-85
2022/10/06 00:11:58;;;;;;;;;;;12.50;99.90;;;;;;5088364;28;19923;-87
2022/10/06 00:14:24;;;;;;;;;;;12.40;99.90;;;;;;5132617;27;19931;-86
2022/10/06 00:16:49;;;;;;;;;;;12.40;99.90;;;;;;5101027;28;20726;-88
2022/10/06 00:19:15;;;;;;;;;;;12.40;99.90;;;;;;5131423;27;20389;-87
2022/10/06 00:21:40;;;;;;;;;;;12.40;99.90;;;;;;5129437;27;19924;-87
2022/10/06 00:24:06;;;;;;;;;;;12.40;99.90;;;;;;5129318;27;20002;-88
2022/10/06 00:26:31;;;;;;;;;;;12.30;99.90;;;;;;5110561;28;19932;-87
2022/10/06 00:28:57;;;;;;;;;;;12.40;99.90;;;;;;5087552;28;19925;-87
2022/10/06 00:31:23;;;;;;;;;;;12.40;99.90;;;;;;5085173;28;19924;-87
2022/10/06 00:33:48;;;;;;;;;;;12.40;99.90;;;;;;5086718;28;20014;-87
2022/10/06 00:36:14;;;;;;;;;;;12.50;99.90;;;;;;5103345;28;19924;-88
2022/10/06 00:38:40;;;;;;;;;;;12.50;99.90;;;;;;5112182;28;20026;-86
2022/10/06 00:41:06;;;;;;;;;;;12.40;99.90;;;;;;5108958;28;20043;-88
2022/10/06 00:43:51;;;;;;;;;;;12.40;99.90;;;;;;5085940;28;20283;-87
2022/10/06 00:46:19;;;;;;;;;;;12.40;99.90;;;;;;5118371;28;20359;-87
2022/10/06 00:48:47;;;;;;;;;;;12.50;99.90;;;;;;5129071;27;19931;-87
2022/10/06 00:51:13;;;;;;;;;;;12.30;99.90;;;;;;5143776;27;19983;-87
2022/10/06 00:53:39;;;;;;;;;;;12.30;99.90;;;;;;5103809;28;19927;-87
2022/10/06 00:56:05;;;;;;;;;;;12.20;99.90;;;;;;5124918;27;19924;-86
2022/10/06 00:58:31;;;;;;;;;;;12.20;99.90;;;;;;5123978;27;19925;-87
2022/10/06 01:00:57;;;;;;;;;;;12.20;99.90;;;;;;5108090;28;19949;-87
2022/10/06 01:03:26;;;;;;;;;;;12.20;99.90;;;;;;5130115;27;19975;-87
2022/10/06 01:05:52;;;;;;;;;;;12.20;99.90;;;;;;5128618;27;19924;-87
2022/10/06 01:08:17;;;;;;;;;;;12.20;99.90;;;;;;5110998;28;20227;-87
2022/10/06 01:10:43;;;;;;;;;;;12.30;99.90;;;;;;5130769;27;19924;-87
2022/10/06 01:13:10;;;;;;;;;;;12.30;99.90;;;;;;5128363;27;20317;-87
2022/10/06 01:15:38;;;;;;;;;;;12.20;99.90;;;;;;5112591;28;19939;-87
2022/10/06 01:18:06;;;;;;;;;;;12.20;99.90;;;;;;5102172;28;19963;-88
2022/10/06 01:20:33;;;;;;;;;;;12.20;99.90;;;;;;5099833;28;20062;-88
2022/10/06 01:23:09;;;;;;;;;;;12.10;99.90;;;;;;5114154;28;19924;-88
2022/10/06 01:25:35;;;;;;;;;;;12.10;99.90;;;;;;5146451;27;19928;-87
2022/10/06 01:28:01;;;;;;;;;;;12.10;99.90;;;;;;5127516;27;20495;-86
2022/10/06 01:30:31;;;;;;;;;;;12.10;99.90;;;;;;5100794;28;19924;-87
2022/10/06 01:32:57;;;;;;;;;;;12.00;99.90;;;;;;5127130;27;21166;-88
2022/10/06 01:35:23;;;;;;;;;;;12.00;99.90;;;;;;5112120;28;19935;-88
2022/10/06 01:37:48;;;;;;;;;;;12.00;99.90;;;;;;5126032;27;19969;-87
2022/10/06 01:40:14;;;;;;;;;;;12.00;99.90;;;;;;5120149;28;20397;-88
2022/10/06 01:42:39;;;;;;;;;;;12.00;99.90;;;;;;5129288;27;19931;-88
2022/10/06 01:45:06;;;;;;;;;;;12.00;99.90;;;;;;5111850;28;19959;-88
2022/10/06 01:47:32;;;;;;;;;;;11.90;99.90;;;;;;5125119;27;19976;-86
2022/10/06 01:49:58;;;;;;;;;;;11.90;99.90;;;;;;5102950;28;19955;-88
2022/10/06 01:52:25;;;;;;;;;;;11.90;99.90;;;;;;5109388;28;19923;-87
2022/10/06 01:54:51;;;;;;;;;;;11.80;99.90;;;;;;5117652;28;19923;-88
2022/10/06 01:57:17;;;;;;;;;;;11.70;99.90;;;;;;5082355;28;19924;-88
2022/10/06 01:59:42;;;;;;;;;;;11.60;99.90;;;;;;5101680;28;19930;-87
2022/10/06 02:02:08;;;;;;;;;;;11.60;99.90;;;;;;5109331;28;19924;-87
2022/10/06 02:04:33;;;;;;;;;;;11.70;99.90;;;;;;5123920;28;19924;-87
2022/10/06 02:06:59;;;;;;;;;;;11.70;99.90;;;;;;5102805;28;19952;-86
2022/10/06 02:09:25;;;;;;;;;;;11.70;99.90;;;;;;5129628;28;19935;-86
2022/10/06 02:11:50;;;;;;;;;;;11.60;99.90;;;;;;5100313;28;19943;-87
2022/10/06 02:14:16;;;;;;;;;;;11.60;99.90;;;;;;5110174;28;19939;-87
2022/10/06 02:16:43;;;;;;;;;;;11.60;99.90;;;;;;5081090;28;19924;-87
2022/10/06 02:19:08;;;;;;;;;;;11.60;99.90;;;;;;5125554;28;19934;-86
2022/10/06 02:21:34;;;;;;;;;;;11.60;99.90;;;;;;5117699;28;19924;-87
2022/10/06 02:24:00;;;;;;;;;;;11.60;99.90;;;;;;5103502;28;19998;-88
2022/10/06 02:26:25;;;;;;;;;;;11.50;99.90;;;;;;5103004;28;19951;-87
2022/10/06 02:28:51;;;;;;;;;;;11.50;99.90;;;;;;5136557;27;19931;-87
2022/10/06 02:31:17;;;;;;;;;;;11.50;99.90;;;;;;5126383;27;19931;-86
2022/10/06 02:33:43;;;;;;;;;;;11.50;99.90;;;;;;5130741;27;19924;-87
2022/10/06 02:36:13;;;;;;;;;;;11.40;99.90;;;;;;5131659;27;19924;-87
2022/10/06 02:38:38;;;;;;;;;;;11.40;99.90;;;;;;5132693;27;19974;-87
2022/10/06 02:41:04;;;;;;;;;;;11.40;99.90;;;;;;5130697;27;19924;-87
2022/10/06 02:43:30;;;;;;;;;;;11.30;99.90;;;;;;5103899;28;19980;-86
2022/10/06 02:45:57;;;;;;;;;;;11.30;99.90;;;;;;5118106;28;20127;-87
2022/10/06 02:48:23;;;;;;;;;;;11.30;99.90;;;;;;5128176;27;19924;-88
2022/10/06 02:50:55;;;;;;;;;;;11.20;99.90;;;;;;5130267;27;19952;-87
2022/10/06 02:53:22;;;;;;;;;;;11.20;99.90;;;;;;5106140;28;19942;-86
2022/10/06 02:55:48;;;;;;;;;;;11.10;99.90;;;;;;5111245;28;19924;-86
2022/10/06 02:58:14;;;;;;;;;;;11.10;99.90;;;;;;5106538;28;20006;-87
2022/10/06 03:00:39;;;;;;;;;;;11.00;99.90;;;;;;5147648;27;20058;-86
2022/10/06 03:03:05;;;;;;;;;;;11.00;99.90;;;;;;5147299;27;19969;-87
2022/10/06 03:05:30;;;;;;;;;;;11.00;99.90;;;;;;5114356;28;20015;-86
2022/10/06 03:07:56;;;;;;;;;;;11.00;99.90;;;;;;5105592;28;19931;-87
2022/10/06 03:10:21;;;;;;;;;;;11.00;99.90;;;;;;5105882;28;19923;-87
2022/10/06 03:12:47;;;;;;;;;;;10.90;99.90;;;;;;5087339;28;19975;-87
2022/10/06 03:15:13;;;;;;;;;;;11.00;99.90;;;;;;5111097;28;19931;-86
2022/10/06 03:17:38;;;;;;;;;;;10.90;99.90;;;;;;5083686;28;19954;-86
2022/10/06 03:20:04;;;;;;;;;;;10.90;99.90;;;;;;5134647;27;19987;-87
2022/10/06 03:22:29;;;;;;;;;;;10.80;99.90;;;;;;5086128;28;19924;-87
2022/10/06 03:24:55;;;;;;;;;;;10.80;99.90;;;;;;5130726;27;19983;-87
2022/10/06 03:27:21;;;;;;;;;;;10.80;99.90;;;;;;5135737;27;20101;-86
2022/10/06 03:29:46;;;;;;;;;;;10.80;99.90;;;;;;5097732;28;20061;-87
2022/10/06 03:32:12;;;;;;;;;;;10.80;99.90;;;;;;5086024;28;19923;-87
2022/10/06 03:34:37;;;;;;;;;;;10.80;99.90;;;;;;5083332;28;19924;-87
2022/10/06 03:37:03;;;;;;;;;;;10.80;99.90;;;;;;5105314;28;19979;-87
2022/10/06 03:39:29;;;;;;;;;;;10.80;99.90;;;;;;5113751;28;19946;-87
2022/10/06 03:41:54;;;;;;;;;;;10.70;99.90;;;;;;5116352;28;19927;-87
2022/10/06 03:44:21;;;;;;;;;;;10.60;99.90;;;;;;5087949;28;19924;-86
2022/10/06 03:46:47;;;;;;;;;;;10.60;99.90;;;;;;5104312;28;20311;-87
2022/10/06 03:49:13;;;;;;;;;;;10.60;99.90;;;;;;5109049;28;19957;-86
2022/10/06 03:51:39;;;;;;;;;;;10.50;99.90;;;;;;5084903;28;19927;-87
2022/10/06 03:54:06;;;;;;;;;;;10.50;99.90;;;;;;5121410;28;20009;-86
2022/10/06 03:56:33;;;;;;;;;;;10.50;99.90;;;;;;5118205;28;20418;-87
2022/10/06 03:59:00;;;;;;;;;;;10.50;99.90;;;;;;5104705;28;19931;-87
2022/10/06 04:01:27;;;;;;;;;;;10.60;99.90;;;;;;5118581;28;19928;-87
2022/10/06 04:03:54;;;;;;;;;;;10.60;99.90;;;;;;5102252;28;19931;-87
2022/10/06 04:06:20;;;;;;;;;;;10.60;99.90;;;;;;5129906;27;19924;-87
2022/10/06 04:08:46;;;;;;;;;;;10.60;99.90;;;;;;5111506;28;19927;-87
2022/10/06 04:11:14;;;;;;;;;;;10.60;99.90;;;;;;5113522;27;20022;-87
2022/10/06 04:13:40;;;;;;;;;;;10.60;99.90;;;;;;5152053;27;20429;-86
2022/10/06 04:16:17;;;;;;;;;;;10.50;99.90;;;;;;5099893;28;19928;-87
2022/10/06 04:18:43;;;;;;;;;;;10.50;99.90;;;;;;5102994;28;19924;-87
2022/10/06 04:21:09;;;;;;;;;;;10.40;99.90;;;;;;5112311;28;19923;-86
2022/10/06 04:23:35;;;;;;;;;;;10.30;99.90;;;;;;5102341;28;19966;-87
2022/10/06 04:26:01;;;;;;;;;;;10.30;99.90;;;;;;5108342;28;19930;-87
2022/10/06 04:28:27;;;;;;;;;;;10.30;99.90;;;;;;5082671;28;19955;-87
2022/10/06 04:30:57;;;;;;;;;;;10.20;99.90;;;;;;5110840;28;19923;-86
2022/10/06 04:33:22;;;;;;;;;;;10.20;99.90;;;;;;5143580;27;19983;-87
2022/10/06 04:35:55;;;;;;;;;;;9.90;99.90;;;;;;5090375;28;19987;-85
2022/10/06 04:38:20;;;;;;;;;;;10.10;99.90;;;;;;5119306;28;19932;-86
2022/10/06 04:40:46;;;;;;;;;;;10.10;99.90;;;;;;5087155;28;19968;-86
2022/10/06 04:43:12;;;;;;;;;;;10.10;99.90;;;;;;5081083;28;19924;-86
2022/10/06 04:45:38;;;;;;;;;;;10.00;99.90;;;;;;5079803;28;19924;-86
2022/10/06 04:48:03;;;;;;;;;;;10.00;99.90;;;;;;5101946;28;20065;-86
2022/10/06 04:50:29;;;;;;;;;;;10.00;99.90;;;;;;5132566;27;19967;-86
2022/10/06 04:52:55;;;;;;;;;;;10.00;99.90;;;;;;5127371;27;19928;-86
2022/10/06 04:55:21;;;;;;;;;;;10.00;99.90;;;;;;5112579;28;19942;-86
2022/10/06 04:57:46;;;;;;;;;;;10.00;99.90;;;;;;5133370;27;19932;-86
2022/10/06 05:00:25;;;;;;;;;;;10.00;99.90;;;;;;5077353;28;19924;-86
2022/10/06 05:02:54;;;;;;;;;;;10.00;99.90;;;;;;5097417;28;19931;-86
2022/10/06 05:05:20;;;;;;;;;;;10.00;99.90;;;;;;5101351;28;19956;-86
2022/10/06 05:07:46;;;;;;;;;;;8.80;99.90;;;;;;5130114;27;19924;-86
2022/10/06 05:10:12;;;;;;;;;;;10.00;99.90;;;;;;5129869;27;19946;-86
2022/10/06 05:12:37;;;;;;;;;;;9.90;99.90;;;;;;5127887;27;19931;-86
2022/10/06 05:15:03;;;;;;;;;;;9.90;99.90;;;;;;5086448;28;19924;-86
2022/10/06 05:17:29;;;;;;;;;;;9.90;99.90;;;;;;5075625;28;19924;-88
2022/10/06 05:19:54;;;;;;;;;;;10.00;99.90;;;;;;5103468;28;20324;-86
2022/10/06 05:22:20;;;;;;;;;;;10.00;99.90;;;;;;5100498;28;19923;-86
2022/10/06 05:24:45;;;;;;;;;;;10.00;99.90;;;;;;5129515;27;20346;-86
2022/10/06 05:27:11;;;;;;;;;;;10.00;99.90;;;;;;5129425;27;19955;-86
2022/10/06 05:29:37;;;;;;;;;;;10.00;99.90;;;;;;5123930;27;19958;-86
2022/10/06 05:32:03;;;;;;;;;;;10.00;99.90;;;;;;5113593;28;19932;-85
2022/10/06 05:34:29;;;;;;;;;;;10.10;99.90;;;;;;5100636;28;19924;-86
2022/10/06 05:36:54;;;;;;;;;;;10.10;99.90;;;;;;5107901;28;19989;-85
2022/10/06 05:39:20;;;;;;;;;;;10.10;99.90;;;;;;5116710;28;19946;-86
2022/10/06 05:41:48;;;;;;;;;;;10.30;99.90;;;;;;5126530;27;19932;-86
2022/10/06 05:44:14;;;;;;;;;;;10.10;99.90;;;;;;5113530;28;19924;-88
2022/10/06 05:46:39;;;;;;;;;;;10.10;99.90;;;;;;5115822;28;19969;-87
2022/10/06 05:49:07;;;;;;;;;;;10.10;99.90;;;;;;5110218;28;20438;-86
2022/10/06 05:51:34;;;;;;;;;;;10.00;99.90;;;;;;5142795;27;19978;-86
2022/10/06 05:54:00;;;;;;;;;;;10.00;99.90;;;;;;5114818;28;19924;-85
2022/10/06 05:56:26;;;;;;;;;;;10.00;99.90;;;;;;5092255;28;19927;-88
2022/10/06 05:58:54;;;;;;;;;;;9.90;99.90;;;;;;5149128;27;20027;-89
2022/10/06 06:01:21;;;;;;;;;;;10.00;99.90;;;;;;5115292;28;20370;-88
2022/10/06 06:03:50;;;;;;;;;;;10.00;99.90;;;;;;5146530;27;19934;-89
2022/10/06 06:06:16;;;;;;;;;;;10.10;99.90;;;;;;5099424;28;19943;-88
2022/10/06 06:08:42;;;;;;;;;;;10.10;99.90;;;;;;5100842;28;19923;-88
2022/10/06 06:11:07;;;;;;;;;;;10.20;99.90;;;;;;5125236;28;19945;-88
2022/10/06 06:13:34;;;;;;;;;;;10.20;99.90;;;;;;5098717;28;19963;-88
2022/10/06 06:15:59;;;;;;;;;;;10.30;99.90;;;;;;5117266;28;19938;-90
2022/10/06 06:18:26;;;;;;;;;;;10.40;99.90;;;;;;5128437;27;19991;-90
2022/10/06 06:20:56;;;;;;;;;;;10.40;99.90;;;;;;5101600;28;20015;-88
2022/10/06 06:23:21;;;;;;;;;;;10.50;99.90;;;;;;5098131;28;19924;-88
2022/10/06 06:25:57;;;;;;;;;;;10.50;99.90;;;;;;5141876;27;19974;-89
2022/10/06 06:28:23;;;;;;;;;;;10.50;99.90;;;;;;5085628;28;19924;-90
2022/10/06 06:30:48;;;;;;;;;;;10.50;99.90;;;;;;5080484;28;20174;-90
2022/10/06 06:33:14;;;;;;;;;;;10.40;99.90;;;;;;5127717;28;19923;-88
2022/10/06 06:35:39;;;;;;;;;;;10.40;99.90;;;;;;5106669;28;19928;-88
2022/10/06 06:38:10;;;;;;;;;;;10.40;99.90;;;;;;5118435;28;20006;-89
2022/10/06 06:40:39;;;;;;;;;;;10.40;99.90;;;;;;5115933;28;20019;-89
2022/10/06 06:43:04;;;;;;;;;;;10.50;99.90;;;;;;5130567;28;19930;-89
2022/10/06 06:45:30;;;;;;;;;;;10.50;99.90;;;;;;5110332;28;19924;-90
2022/10/06 06:47:55;;;;;;;;;;;10.50;99.90;;;;;;5099433;28;19946;-89
2022/10/06 06:50:21;;;;;;;;;;;10.50;99.90;;;;;;5114064;28;19924;-91
2022/10/06 06:52:46;;;;;;;;;;;10.60;99.90;;;;;;5126612;28;19931;-90
2022/10/06 06:55:12;;;;;;;;;;;10.60;99.90;;;;;;5112035;28;19962;-89
2022/10/06 06:57:45;;;;;;;;;;;10.70;99.90;;;;;;5114085;28;19935;-88
2022/10/06 07:00:11;;;;;;;;;;;10.70;99.90;;;;;;5126571;27;19924;-86
2022/10/06 07:02:37;;;;;;;;;;;10.90;99.90;;;;;;5081660;28;19943;-87
2022/10/06 07:05:03;;;;;;;;;;;10.90;99.90;;;;;;5098272;28;20015;-87
2022/10/06 07:07:28;;;;;;;;;;;11.00;99.90;;;;;;5109207;28;19981;-87
2022/10/06 07:09:54;;;;;;;;;;;11.10;99.90;;;;;;5115726;28;19934;-87
2022/10/06 07:12:19;;;;;;;;;;;11.20;99.90;;;;;;5102849;28;19934;-86
2022/10/06 07:25:42;;;;;;;;;;;11.50;99.90;;;;;;5160494;27;19924;-86
2022/10/06 07:28:11;;;;;;;;;;;11.50;99.90;;;;;;5145490;27;19924;-87
2022/10/06 07:30:37;;;;;;;;;;;11.50;99.90;;;;;;5131098;27;19978;-86
2022/10/06 07:33:03;;;;;;;;;;;11.60;99.90;;;;;;5147914;27;20018;-86
2022/10/06 07:35:29;;;;;;;;;;;11.60;99.90;;;;;;5101615;28;19935;-87
2022/10/06 07:38:01;;;;;;;;;;;11.60;99.90;;;;;;5103025;28;19927;-87
2022/10/06 07:40:26;;;;;;;;;;;11.80;99.90;;;;;;5103885;28;19924;-87
2022/10/06 07:42:52;;;;;;;;;;;11.90;99.90;;;;;;5128292;27;19961;-86
2022/10/06 07:48:02;;;;;;;;;;;11.90;99.90;;;;;;5119331;28;20397;-87
2022/10/06 07:50:28;;;;;;;;;;;12.00;99.90;;;;;;5120047;28;19931;-86
2022/10/06 07:52:54;;;;;;;;;;;12.00;99.90;;;;;;5120392;28;19924;-86
2022/10/06 07:55:20;;;;;;;;;;;12.10;99.90;;;;;;5127118;27;19924;-86
2022/10/06 07:57:45;;;;;;;;;;;12.10;99.90;;;;;;5120598;28;19975;-87
2022/10/06 08:00:14;;;;;;;;;;;12.20;99.90;;;;;;5116716;28;19924;-87
2022/10/06 08:02:40;;;;;;;;;;;12.20;99.90;;;;;;5134222;27;19961;-87
2022/10/06 08:05:07;;;;;;;;;;;12.30;99.90;;;;;;5101937;28;19951;-86
2022/10/06 08:07:33;;;;;;;;;;;12.30;99.90;;;;;;5126981;27;19934;-87
2022/10/06 08:09:59;;;;;;;;;;;12.30;99.90;;;;;;5112744;28;20133;-86
2022/10/06 08:12:36;;;;;;;;;;;12.30;99.90;;;;;;5125384;27;19937;-87
2022/10/06 08:15:05;;;;;;;;;;;12.40;99.90;;;;;;5129891;27;21592;-86
2022/10/06 08:17:31;;;;;;;;;;;12.40;99.90;;;;;;5124699;27;19924;-87
2022/10/06 08:19:57;;;;;;;;;;;12.50;99.90;;;;;;5101181;28;20559;-87
2022/10/06 08:22:26;;;;;;;;;;;12.50;99.90;;;;;;5112209;28;20398;-86
2022/10/06 08:24:53;;;;;;;;;;;12.60;99.90;;;;;;5131680;27;19931;-86
2022/10/06 08:27:20;;;;;;;;;;;12.70;99.90;;;;;;5100446;28;19994;-86
2022/10/06 08:29:45;;;;;;;;;;;12.80;99.90;;;;;;5129437;27;19973;-86
2022/10/06 08:32:11;;;;;;;;;;;12.90;99.90;;;;;;5145296;27;20313;-85
2022/10/06 08:34:36;;;;;;;;;;;13.00;99.90;;;;;;5131861;27;19924;-86
2022/10/06 08:37:02;;;;;;;;;;;13.00;99.90;;;;;;5128885;27;19932;-86
2022/10/06 08:39:29;;;;;;;;;;;13.10;99.90;;;;;;5111490;28;19924;-87
2022/10/06 08:41:56;;;;;;;;;;;13.20;99.90;;;;;;5102659;28;19945;-87
2022/10/06 08:44:29;;;;;;;;;;;13.20;99.90;;;;;;5102477;28;19924;-87
2022/10/06 08:46:54;;;;;;;;;;;13.30;99.90;;;;;;5100603;28;19970;-89
2022/10/06 08:49:21;;;;;;;;;;;13.40;99.90;;;;;;5099487;28;19932;-87
2022/10/06 08:51:53;;;;;;;;;;;13.40;99.90;;;;;;5101234;28;20011;-87
2022/10/06 08:54:36;;;;;;;;;;;13.50;99.90;;;;;;5132764;27;19928;-88
2022/10/06 08:57:20;;;;;;;;;;;13.50;99.90;;;;;;5099454;28;20024;-89
2022/10/06 08:59:47;;;;;;;;;;;13.60;99.90;;;;;;5127530;27;19923;-89
2022/10/06 09:02:22;;;;;;;;;;;13.60;99.90;;;;;;5101553;28;19923;-88
2022/10/06 09:04:50;;;;;;;;;;;13.70;99.90;;;;;;5128502;27;19923;-89
2022/10/06 09:07:20;;;;;;;;;;;13.70;99.90;;;;;;5127799;27;19928;-89
2022/10/06 09:09:52;;;;;;;;;;;13.70;99.90;;;;;;5097133;28;19928;-88
2022/10/06 09:12:36;;;;;;;;;;;13.70;99.90;;;;;;5141617;27;19969;-88
2022/10/06 09:15:21;;;;;;;;;;;13.80;99.90;;;;;;5101446;28;19950;-88
2022/10/06 09:17:53;;;;;;;;;;;13.80;99.90;;;;;;5080916;28;22236;-87
2022/10/06 09:20:41;;;;;;;;;;;13.90;99.90;;;;;;5146996;27;19964;-87
2022/10/06 09:23:15;;;;;;;;;;;13.90;99.90;;;;;;5126461;27;19924;-88
2022/10/06 09:25:40;;;;;;;;;;;14.00;99.90;;;;;;5100883;28;19999;-88
2022/10/06 09:28:10;;;;;;;;;;;14.10;99.90;;;;;;5124943;27;19924;-87
2022/10/06 09:30:36;;;;;;;;;;;14.10;99.90;;;;;;5116828;28;19928;-89
2022/10/06 09:33:03;;;;;;;;;;;14.20;99.90;;;;;;5145878;27;19934;-88
2022/10/06 09:35:30;;;;;;;;;;;14.40;99.90;;;;;;5144849;27;19994;-88
2022/10/06 09:38:03;;;;;;;;;;;14.40;99.90;;;;;;5130839;27;19928;-88
2022/10/06 09:40:31;;;;;;;;;;;14.30;99.90;;;;;;5117969;28;19930;-88
2022/10/06 09:42:57;;;;;;;;;;;14.40;99.90;;;;;;5148271;27;20367;-89
2022/10/06 09:45:24;;;;;;;;;;;14.50;99.90;;;;;;5099899;28;20440;-86
2022/10/06 09:47:49;;;;;;;;;;;14.50;99.90;;;;;;5145077;27;19923;-87
2022/10/06 09:50:20;;;;;;;;;;;14.50;99.90;;;;;;5093669;28;19950;-88
2022/10/06 09:52:59;;;;;;;;;;;14.60;99.90;;;;;;5140813;27;19931;-88
2022/10/06 09:55:27;;;;;;;;;;;14.60;99.90;;;;;;5100630;28;19923;-88
2022/10/06 09:57:55;;;;;;;;;;;14.70;99.90;;;;;;5128222;27;19931;-88
2022/10/06 10:00:28;;;;;;;;;;;14.80;99.90;;;;;;5119836;28;19928;-88
2022/10/06 10:02:56;;;;;;;;;;;14.70;99.90;;;;;;5148188;27;19982;-89
2022/10/06 10:05:23;;;;;;;;;;;14.70;99.90;;;;;;5105842;28;19930;-88
2022/10/06 10:08:02;;;;;;;;;;;14.80;99.90;;;;;;5129051;27;19924;-87
2022/10/06 10:10:27;;;;;;;;;;;14.70;99.90;;;;;;5119127;28;19938;-88
2022/10/06 10:12:57;;;;;;;;;;;14.70;99.90;;;;;;5102758;28;19923;-88
2022/10/06 10:15:24;;;;;;;;;;;14.80;99.90;;;;;;5126245;28;19924;-88
2022/10/06 10:17:51;;;;;;;;;;;14.90;99.90;;;;;;5115435;28;20466;-88
2022/10/06 10:20:23;;;;;;;;;;;15.00;99.90;;;;;;5126386;28;19927;-89
2022/10/06 10:22:49;;;;;;;;;;;14.90;99.90;;;;;;5128324;28;19978;-87
2022/10/06 10:25:18;;;;;;;;;;;15.00;99.90;;;;;;5109954;28;19928;-88
2022/10/06 10:27:43;;;;;;;;;;;15.00;99.90;;;;;;5099472;28;20026;-87
2022/10/06 10:30:10;;;;;;;;;;;15.10;99.90;;;;;;5096407;28;20013;-87
2022/10/06 10:33:09;;;;;;;;;;;15.30;99.90;;;;;;5084336;28;19950;-88
2022/10/06 10:35:36;;;;;;;;;;;15.30;99.90;;;;;;5091515;28;19928;-88
2022/10/06 10:38:21;;;;;;;;;;;15.40;99.90;;;;;;5117806;28;19975;-87
2022/10/06 10:40:47;;;;;;;;;;;15.50;99.90;;;;;;5127377;28;19924;-88
2022/10/06 10:43:13;;;;;;;;;;;15.50;99.90;;;;;;5146647;27;19924;-88
2022/10/06 10:45:41;;;;;;;;;;;15.50;99.90;;;;;;5104903;28;19923;-89
2022/10/06 10:48:20;;;;;;;;;;;15.40;99.90;;;;;;5121864;28;19923;-88
2022/10/06 10:50:50;;;;;;;;;;;15.40;99.90;;;;;;5147729;27;19927;-90
2022/10/06 10:53:25;;;;;;;;;;;15.40;99.90;;;;;;5121560;28;19935;-91
2022/10/06 10:55:51;;;;;;;;;;;15.50;99.90;;;;;;5103434;28;19932;-93
2022/10/06 10:58:32;;;;;;;;;;;15.60;99.90;;;;;;5122859;28;20018;-86
2022/10/06 11:01:06;;;;;;;;;;;15.60;99.90;;;;;;5102612;28;20372;-89
2022/10/06 11:03:32;;;;;;;;;;;15.70;99.90;;;;;;5121102;28;19932;-89
2022/10/06 11:06:16;;;;;;;;;;;15.70;99.90;;;;;;5101779;28;19957;-87
2022/10/06 11:08:53;;;;;;;;;;;15.80;99.90;;;;;;5130967;27;19935;-87
2022/10/06 11:11:28;;;;;;;;;;;15.90;99.90;;;;;;5128640;27;19924;-88
2022/10/06 11:13:55;;;;;;;;;;;15.90;99.80;;;;;;5116003;28;20014;-88
2022/10/06 11:16:50;;;;;;;;;;;16.00;99.90;;;;;;5094735;28;19932;-88
2022/10/06 11:19:35;;;;;;;;;;;15.90;99.90;;;;;;5106248;27;20406;-89
2022/10/06 11:22:00;;;;;;;;;;;15.90;99.90;;;;;;5096655;28;20322;-89
2022/10/06 11:24:51;;;;;;;;;;;15.90;99.90;;;;;;5095769;28;20024;-90
2022/10/06 11:27:22;;;;;;;;;;;15.80;99.20;;;;;;5093456;28;19931;-88
2022/10/06 11:30:04;;;;;;;;;;;15.70;99.60;;;;;;5097577;28;19977;-89
2022/10/06 11:32:48;;;;;;;;;;;15.60;99.50;;;;;;5095230;28;20023;-88
2022/10/06 11:35:16;;;;;;;;;;;15.30;98.80;;;;;;5093048;28;19930;-89
2022/10/06 11:37:52;;;;;;;;;;;15.20;99.60;;;;;;5097746;28;19928;-88
2022/10/06 11:40:35;;;;;;;;;;;15.10;99.80;;;;;;5091191;28;19938;-89
2022/10/06 11:43:22;;;;;;;;;;;15.20;99.90;;;;;;5111148;28;19996;-89
2022/10/06 11:45:48;;;;;;;;;;;15.50;99.90;;;;;;5094286;28;19985;-89
2022/10/06 11:48:31;;;;;;;;;;;15.90;99.90;;;;;;5092722;28;19932;-89
2022/10/06 11:51:16;;;;;;;;;;;16.10;99.80;;;;;;5097979;28;19924;-90
2022/10/06 11:53:42;;;;;;;;;;;16.30;98.80;;;;;;5093601;28;19924;-89
2022/10/06 11:56:28;;;;;;;;;;;16.40;99.30;;;;;;5090795;28;19963;-88
2022/10/06 11:58:53;;;;;;;;;;;16.50;99.50;;;;;;5111952;28;19930;-89
2022/10/06 12:01:38;;;;;;;;;;;16.70;98.60;;;;;;5093113;28;19924;-88
2022/10/06 12:04:06;;;;;;;;;;;16.60;98.30;;;;;;5095778;28;19927;-89
2022/10/06 12:06:41;;;;;;;;;;;16.70;98.10;;;;;;5108433;28;19981;-87
2022/10/06 12:09:33;;;;;;;;;;;16.70;97.40;;;;;;5098239;28;19924;-89
2022/10/06 12:12:19;;;;;;;;;;;16.80;97.20;;;;;;5092088;28;19923;-89
2022/10/06 12:14:48;;;;;;;;;;;16.90;98.20;;;;;;5114217;28;19928;-88
2022/10/06 12:17:31;;;;;;;;;;;16.80;95.40;;;;;;5110903;28;20301;-87
2022/10/06 12:20:15;;;;;;;;;;;16.80;95.10;;;;;;5093583;28;19924;-88
2022/10/06 12:22:53;;;;;;;;;;;16.80;95.40;;;;;;5107880;28;19924;-87
2022/10/06 12:25:29;;;;;;;;;;;16.70;95.30;;;;;;5092735;28;19955;-88
2022/10/06 12:28:10;;;;;;;;;;;16.60;96.00;;;;;;5097005;28;19949;-87
2022/10/06 12:30:54;;;;;;;;;;;16.50;96.40;;;;;;5107535;28;19967;-86
2022/10/06 12:33:36;;;;;;;;;;;16.60;96.80;;;;;;5094873;28;19938;-87
2022/10/06 12:36:03;;;;;;;;;;;16.70;98.10;;;;;;5108719;28;19934;-87
2022/10/06 12:38:40;;;;;;;;;;;16.80;95.90;;;;;;5114058;28;20038;-87
2022/10/06 12:41:12;;;;;;;;;;;16.70;94.40;;;;;;5092688;28;19934;-86
2022/10/06 12:43:52;;;;;;;;;;;16.70;96.10;;;;;;5107491;28;19934;-87
2022/10/06 12:46:24;;;;;;;;;;;16.80;95.80;;;;;;5093476;28;19923;-86
2022/10/06 12:48:50;;;;;;;;;;;16.70;96.10;;;;;;5091412;28;19938;-87
2022/10/06 12:51:33;;;;;;;;;;;16.50;93.90;;;;;;5091609;28;19924;-87
2022/10/06 12:54:10;;;;;;;;;;;16.50;95.20;;;;;;5112480;28;20010;-86
2022/10/06 12:56:39;;;;;;;;;;;16.60;97.30;;;;;;5110976;28;20387;-87
2022/10/06 12:59:20;;;;;;;;;;;16.80;95.80;;;;;;5090874;28;19948;-87
2022/10/06 13:01:51;;;;;;;;;;;16.90;96.20;;;;;;5090789;28;19944;-87
2022/10/06 13:04:28;;;;;;;;;;;16.80;94.60;;;;;;5092635;28;19924;-87
2022/10/06 13:06:54;;;;;;;;;;;16.60;96.60;;;;;;5092170;28;19924;-87
2022/10/06 13:09:20;;;;;;;;;;;16.60;95.20;;;;;;5091808;28;20307;-87
2022/10/06 13:11:48;;;;;;;;;;;16.50;94.90;;;;;;5092353;28;19947;-87
2022/10/06 13:14:14;;;;;;;;;;;16.60;95.90;;;;;;5094598;28;19924;-87
2022/10/06 13:16:48;;;;;;;;;;;16.70;95.60;;;;;;5092237;28;20284;-88
2022/10/06 13:19:16;;;;;;;;;;;16.80;95.00;;;;;;5078120;28;19924;-87
2022/10/06 13:21:42;;;;;;;;;;;16.80;94.70;;;;;;5091672;28;19971;-87
2022/10/06 13:24:13;;;;;;;;;;;16.70;94.90;;;;;;5092377;28;19924;-87
2022/10/06 13:26:39;;;;;;;;;;;16.70;95.80;;;;;;5093926;28;19924;-88
2022/10/06 13:29:15;;;;;;;;;;;16.80;95.10;;;;;;5112149;28;19955;-87
2022/10/06 13:31:44;;;;;;;;;;;16.90;96.10;;;;;;5107298;28;19950;-87
2022/10/06 13:34:12;;;;;;;;;;;16.80;94.00;;;;;;5093368;28;19945;-87
2022/10/06 13:36:39;;;;;;;;;;;16.80;94.50;;;;;;5105544;28;19959;-87
2022/10/06 13:39:05;;;;;;;;;;;16.70;94.90;;;;;;5108159;28;19936;-86
2022/10/06 13:41:33;;;;;;;;;;;16.70;94.80;;;;;;5099020;28;19924;-87
2022/10/06 13:43:59;;;;;;;;;;;16.70;94.60;;;;;;5118194;28;19924;-87
2022/10/06 13:46:26;;;;;;;;;;;16.70;94.70;;;;;;5099991;28;20437;-89
2022/10/06 13:48:53;;;;;;;;;;;16.80;94.70;;;;;;5097466;28;19928;-86
2022/10/06 13:51:20;;;;;;;;;;;16.80;96.10;;;;;;5099711;28;19928;-87
2022/10/06 13:53:47;;;;;;;;;;;16.70;94.40;;;;;;5100404;28;20014;-88
2022/10/06 13:56:25;;;;;;;;;;;16.80;95.40;;;;;;5078970;28;19931;-88
2022/10/06 13:58:50;;;;;;;;;;;16.80;94.80;;;;;;5095421;28;20044;-88
2022/10/06 14:01:26;;;;;;;;;;;16.70;94.30;;;;;;5095538;28;20368;-88
2022/10/06 14:04:10;;;;;;;;;;;16.70;94.40;;;;;;5108245;28;19924;-88
2022/10/06 14:06:35;;;;;;;;;;;16.70;94.60;;;;;;5113968;28;19931;-88
2022/10/06 14:09:07;;;;;;;;;;;16.80;95.40;;;;;;5117243;28;19932;-87
2022/10/06 14:11:33;;;;;;;;;;;16.80;95.00;;;;;;5101493;28;19946;-87
2022/10/06 14:14:00;;;;;;;;;;;16.80;95.20;;;;;;5117292;28;19924;-87
2022/10/06 14:16:26;;;;;;;;;;;16.80;94.70;;;;;;5098799;28;19939;-88
2022/10/06 14:18:59;;;;;;;;;;;16.80;94.70;;;;;;5107514;28;19927;-87
2022/10/06 14:21:31;;;;;;;;;;;16.80;94.40;;;;;;5124131;28;19923;-87
2022/10/06 14:23:57;;;;;;;;;;;16.80;94.40;;;;;;5109103;28;19923;-87
2022/10/06 14:26:23;;;;;;;;;;;16.80;95.00;;;;;;5105464;28;19931;-85
2022/10/06 14:28:51;;;;;;;;;;;16.70;95.00;;;;;;5121427;28;19947;-87
2022/10/06 14:31:20;;;;;;;;;;;16.60;94.80;;;;;;5080857;28;19924;-91
2022/10/06 14:33:47;;;;;;;;;;;16.50;95.10;;;;;;5091358;28;19924;-89
2022/10/06 14:36:17;;;;;;;;;;;16.50;95.60;;;;;;5108502;28;19930;-90
2022/10/06 14:38:44;;;;;;;;;;;16.60;96.10;;;;;;5108154;28;19927;-89
2022/10/06 14:41:10;;;;;;;;;;;16.60;94.70;;;;;;5109580;28;19930;-86